createdAt,value
2023-01-30T00:00:07.407Z,11.50
2023-01-30T00:03:08.792Z,11.90
2023-01-30T00:06:10.942Z,11.47
2023-01-30T00:09:15.454Z,11.83
2023-01-30T00:12:16.882Z,12.10
2023-01-30T00:15:18.287Z,12.83
2023-01-30T00:18:19.676Z,12.50
2023-01-30T00:21:21.216Z,12.07
2023-01-30T00:24:22.678Z,12.67
2023-01-30T00:27:24.110Z,12.43
2023-01-30T00:30:25.560Z,12.90
2023-01-30T00:33:27.975Z,12.70
2023-01-30T00:36:29.392Z,13.87
2023-01-30T00:39:30.782Z,12.83
2023-01-30T00:42:50.928Z,12.77
2023-01-30T00:46:13.702Z,13.10
2023-01-30T00:49:15.398Z,13.07
2023-01-30T00:52:16.788Z,12.70
2023-01-30T00:55:18.619Z,12.73
2023-01-30T00:58:21.292Z,13.33
2023-01-30T01:01:22.754Z,13.40
2023-01-30T01:04:24.332Z,12.70
2023-01-30T01:07:25.752Z,13.70
2023-01-30T01:10:28.519Z,13.23
2023-01-30T01:13:29.917Z,12.97
2023-01-30T01:16:32.721Z,13.30
2023-01-30T01:19:35.099Z,13.33
2023-01-30T01:22:36.625Z,13.43
2023-01-30T01:25:38.096Z,12.73
2023-01-30T01:28:41.163Z,12.03
2023-01-30T01:31:46.141Z,11.70
2023-01-30T01:34:47.562Z,12.67
2023-01-30T01:37:53.414Z,11.10
2023-01-30T01:41:05.964Z,11.77
2023-01-30T01:44:11.959Z,11.27
2023-01-30T01:47:13.971Z,11.33
2023-01-30T01:50:21.537Z,12.00
2023-01-30T01:53:28.862Z,10.83
2023-01-30T01:56:32.497Z,11.70
2023-01-30T01:59:39.326Z,11.23
2023-01-30T02:02:43.799Z,11.03
2023-01-30T02:05:50.682Z,10.83
2023-01-30T02:08:58.563Z,10.80
2023-01-30T02:12:03.757Z,11.53
2023-01-30T02:15:07.630Z,11.33
2023-01-30T02:18:09.559Z,12.13
2023-01-30T02:21:20.161Z,11.90
2023-01-30T02:24:27.663Z,11.30
2023-01-30T02:27:59.886Z,12.17
2023-01-30T02:31:38.793Z,11.97
2023-01-30T02:35:01.655Z,12.67
2023-01-30T02:38:30.460Z,12.07
2023-01-30T02:41:44.653Z,12.83
2023-01-30T02:44:56.854Z,13.10
2023-01-30T02:48:03.906Z,12.13
2023-01-30T02:51:18.010Z,13.13
2023-01-30T02:54:19.416Z,13.07
2023-01-30T02:57:23.744Z,13.37
2023-01-30T03:00:37.709Z,13.43
2023-01-30T03:03:54.227Z,13.13
2023-01-30T03:07:38.355Z,12.87
2023-01-30T03:11:03.091Z,12.57
2023-01-30T03:14:23.712Z,13.13
2023-01-30T03:17:27.849Z,13.13
2023-01-30T03:20:29.760Z,12.07
2023-01-30T03:23:31.535Z,12.63
2023-01-30T03:26:37.536Z,13.07
2023-01-30T03:29:40.083Z,13.00
2023-01-30T03:32:41.507Z,12.80
2023-01-30T03:35:43.238Z,12.30
2023-01-30T03:38:47.592Z,11.70
2023-01-30T03:41:49.250Z,11.70
2023-01-30T03:44:52.180Z,13.07
2023-01-30T03:47:53.754Z,12.17
2023-01-30T03:50:55.154Z,12.67
2023-01-30T03:53:56.803Z,11.93
2023-01-30T03:56:58.220Z,12.63
2023-01-30T04:00:00.192Z,12.97
2023-01-30T04:03:01.765Z,12.13
2023-01-30T04:06:03.355Z,12.87
2023-01-30T04:09:05.290Z,11.67
2023-01-30T04:12:13.520Z,11.90
2023-01-30T04:15:23.860Z,12.77
2023-01-30T04:18:54.380Z,11.50
2023-01-30T04:21:59.011Z,11.87
2023-01-30T04:25:01.013Z,11.60
2023-01-30T04:28:02.931Z,11.13
2023-01-30T04:31:09.672Z,11.20
2023-01-30T04:34:40.090Z,11.40
2023-01-30T04:37:41.617Z,11.77
2023-01-30T04:40:50.361Z,11.47
2023-01-30T04:43:52.041Z,10.93
2023-01-30T04:46:59.897Z,11.30
2023-01-30T04:50:01.320Z,11.57
2023-01-30T04:53:03.138Z,11.60
2023-01-30T04:56:04.992Z,11.93
2023-01-30T04:59:06.481Z,11.63
2023-01-30T05:02:13.084Z,12.03
2023-01-30T05:05:14.528Z,11.47
2023-01-30T05:08:16.863Z,11.13
2023-01-30T05:11:19.438Z,11.87
2023-01-30T05:14:20.886Z,12.60
2023-01-30T05:17:22.606Z,11.00
2023-01-30T05:20:24.213Z,11.60
2023-01-30T05:23:26.455Z,11.17
2023-01-30T05:26:27.943Z,11.90
2023-01-30T05:29:29.370Z,12.03
2023-01-30T05:32:31.041Z,10.20
2023-01-30T05:35:32.470Z,11.33
2023-01-30T05:38:33.910Z,10.30
2023-01-30T05:41:35.319Z,10.40
2023-01-30T05:44:36.840Z,10.90
2023-01-30T05:47:38.244Z,10.63
2023-01-30T05:50:39.644Z,10.70
2023-01-30T05:53:41.023Z,11.03
2023-01-30T05:56:42.454Z,10.83
2023-01-30T05:59:43.852Z,10.77
2023-01-30T06:02:45.305Z,10.37
2023-01-30T06:05:46.749Z,10.00
2023-01-30T06:08:52.171Z,10.27
2023-01-30T06:11:55.281Z,10.40
2023-01-30T06:14:56.754Z,10.13
2023-01-30T06:17:58.127Z,10.53
2023-01-30T06:20:59.736Z,10.13
2023-01-30T06:24:02.149Z,10.43
2023-01-30T06:27:03.538Z,10.10
2023-01-30T06:30:05.427Z,10.73
2023-01-30T06:33:08.050Z,9.83
2023-01-30T06:36:09.701Z,10.80
2023-01-30T06:39:11.271Z,10.80
2023-01-30T06:42:12.649Z,10.80
2023-01-30T06:45:16.612Z,10.50
2023-01-30T06:48:18.359Z,9.97
2023-01-30T06:51:19.765Z,9.57
2023-01-30T06:54:21.184Z,9.70
2023-01-30T06:57:22.739Z,10.50
2023-01-30T07:00:24.203Z,9.43
2023-01-30T07:03:25.594Z,9.40
2023-01-30T07:06:28.565Z,9.40
2023-01-30T07:09:29.987Z,9.17
2023-01-30T07:12:31.481Z,9.50
2023-01-30T07:15:33.450Z,8.70
2023-01-30T07:18:34.851Z,8.90
2023-01-30T07:21:36.237Z,9.27
2023-01-30T07:24:38.450Z,9.10
2023-01-30T07:27:41.108Z,8.77
2023-01-30T07:30:42.717Z,9.20
2023-01-30T07:33:44.128Z,10.13
2023-01-30T07:36:45.498Z,9.23
2023-01-30T07:39:46.902Z,10.30
2023-01-30T07:43:03.542Z,10.73
2023-01-30T07:46:05.486Z,10.17
2023-01-30T07:49:08.909Z,10.00
2023-01-30T07:52:10.403Z,10.03
2023-01-30T07:55:11.777Z,10.37
2023-01-30T07:58:15.416Z,9.83
2023-01-30T08:01:17.933Z,10.67
2023-01-30T08:04:19.484Z,9.53
2023-01-30T08:07:20.884Z,10.50
2023-01-30T08:10:22.533Z,10.60
2023-01-30T08:13:24.017Z,10.53
2023-01-30T08:16:25.583Z,9.73
2023-01-30T08:19:26.995Z,10.17
2023-01-30T08:22:29.310Z,9.37
2023-01-30T08:25:30.788Z,9.70
2023-01-30T08:28:32.399Z,10.43
2023-01-30T08:31:33.911Z,10.27
2023-01-30T08:34:35.961Z,10.07
2023-01-30T08:37:39.901Z,9.90
2023-01-30T08:40:41.866Z,9.57
2023-01-30T08:43:43.242Z,9.33
2023-01-30T08:46:44.696Z,9.60
2023-01-30T08:49:46.105Z,10.27
2023-01-30T08:52:47.506Z,9.30
2023-01-30T08:55:52.817Z,9.70
2023-01-30T08:58:54.223Z,9.00
2023-01-30T09:01:55.624Z,9.60
2023-01-30T09:04:57.118Z,9.57
2023-01-30T09:07:58.578Z,10.20
2023-01-30T09:11:01.143Z,9.73
2023-01-30T09:14:02.619Z,10.27
2023-01-30T09:17:04.060Z,9.77
2023-01-30T09:20:07.597Z,10.50
2023-01-30T09:23:09.023Z,9.23
2023-01-30T09:26:10.507Z,9.90
2023-01-30T09:29:12.730Z,10.60
2023-01-30T09:32:14.101Z,9.00
2023-01-30T09:35:15.578Z,8.93
2023-01-30T09:38:17.310Z,9.47
2023-01-30T09:41:50.243Z,9.20
2023-01-30T09:45:15.206Z,8.47
2023-01-30T09:48:42.509Z,9.40
2023-01-30T09:52:09.670Z,8.50
2023-01-30T09:55:19.671Z,8.93
2023-01-30T09:58:23.552Z,8.70
2023-01-30T10:01:44.277Z,9.00
2023-01-30T10:05:00.437Z,8.60
2023-01-30T10:08:26.836Z,8.97
2023-01-30T10:11:42.861Z,7.80
2023-01-30T10:15:09.611Z,7.83
2023-01-30T10:18:42.156Z,7.70
2023-01-30T10:21:59.126Z,9.03
2023-01-30T10:25:19.471Z,8.37
2023-01-30T10:28:26.894Z,8.03
2023-01-30T10:31:37.174Z,8.13
2023-01-30T10:34:42.054Z,8.20
2023-01-30T10:37:55.836Z,8.33
2023-01-30T10:41:19.101Z,8.07
2023-01-30T10:44:22.656Z,8.13
2023-01-30T10:47:46.578Z,8.60
2023-01-30T10:50:59.219Z,8.43
2023-01-30T10:54:03.631Z,8.33
2023-01-30T10:57:38.555Z,7.90
2023-01-30T11:00:51.405Z,8.00
2023-01-30T11:04:02.459Z,7.37
2023-01-30T11:07:04.076Z,7.53
2023-01-30T11:10:16.746Z,8.23
2023-01-30T11:13:20.804Z,7.70
2023-01-30T11:16:22.405Z,8.70
2023-01-30T11:19:34.366Z,8.07
2023-01-30T11:22:36.654Z,8.07
2023-01-30T11:26:10.452Z,7.90
2023-01-30T11:29:25.161Z,7.90
2023-01-30T11:32:28.804Z,8.60
2023-01-30T11:35:31.282Z,8.63
2023-01-30T11:38:35.238Z,8.40
2023-01-30T11:41:36.605Z,8.10
2023-01-30T11:44:42.033Z,8.47
2023-01-30T11:47:57.346Z,8.33
2023-01-30T11:51:04.555Z,8.40
2023-01-30T11:54:12.417Z,8.10
2023-01-30T11:57:15.869Z,8.37
2023-01-30T12:00:20.768Z,8.03
2023-01-30T12:03:25.521Z,8.70
2023-01-30T12:06:31.014Z,8.60
2023-01-30T12:09:35.760Z,7.83
2023-01-30T12:12:45.270Z,8.03
2023-01-30T12:15:50.379Z,8.30
2023-01-30T12:18:51.798Z,7.90
2023-01-30T12:22:16.668Z,7.73
2023-01-30T12:25:35.608Z,7.70
2023-01-30T12:28:54.947Z,8.20
2023-01-30T12:35:17.833Z,8.03
2023-01-30T12:38:39.182Z,7.37
2023-01-30T12:41:50.046Z,7.73
2023-01-30T12:45:21.244Z,8.00
2023-01-30T12:48:33.777Z,7.73
2023-01-30T12:51:43.747Z,7.50
2023-01-30T12:55:00.096Z,7.17
2023-01-30T12:58:14.725Z,7.20
2023-01-30T13:01:29.364Z,6.33
2023-01-30T13:05:04.682Z,6.60
2023-01-30T13:08:18.803Z,6.67
2023-01-30T13:11:42.110Z,6.83
2023-01-30T13:14:52.837Z,6.50
2023-01-30T13:18:05.610Z,6.47
2023-01-30T13:22:02.633Z,6.23
2023-01-30T13:25:27.093Z,6.30
2023-01-30T13:28:34.219Z,6.60
2023-01-30T13:31:40.039Z,6.23
2023-01-30T13:34:45.248Z,6.00
2023-01-30T13:37:49.591Z,6.20
2023-01-30T13:40:53.629Z,5.83
2023-01-30T13:43:55.309Z,5.70
2023-01-30T13:46:59.480Z,6.33
2023-01-30T13:50:12.329Z,5.27
2023-01-30T13:53:50.020Z,5.87
2023-01-30T13:57:15.918Z,5.63
2023-01-30T14:00:28.868Z,5.63
2023-01-30T14:03:32.334Z,5.17
2023-01-30T14:06:37.470Z,5.13
2023-01-30T14:10:10.927Z,5.20
2023-01-30T14:13:16.000Z,4.60
2023-01-30T14:16:17.598Z,4.53
2023-01-30T14:19:40.095Z,5.07
2023-01-30T14:22:51.998Z,4.67
2023-01-30T14:25:57.807Z,4.67
2023-01-30T14:28:59.225Z,4.27
2023-01-30T14:32:00.826Z,3.77
2023-01-30T14:35:17.005Z,4.10
2023-01-30T14:38:19.962Z,4.23
2023-01-30T14:41:27.467Z,4.10
2023-01-30T14:45:14.680Z,3.90
2023-01-30T14:48:41.619Z,4.87
2023-01-30T14:51:47.794Z,4.27
2023-01-30T14:54:50.516Z,4.07
2023-01-30T14:58:01.477Z,4.50
2023-01-30T15:01:03.186Z,4.10
2023-01-30T15:04:05.207Z,4.30
2023-01-30T15:07:25.452Z,4.23
2023-01-30T15:10:45.190Z,3.97
2023-01-30T15:14:02.052Z,4.23
2023-01-30T15:17:22.711Z,4.27
2023-01-30T15:20:50.473Z,5.10
2023-01-30T15:24:27.280Z,5.27
2023-01-30T15:28:19.673Z,5.30
2023-01-30T15:31:23.139Z,6.27
2023-01-30T15:34:29.429Z,5.63
2023-01-30T15:37:41.315Z,5.80
2023-01-30T15:40:42.715Z,5.93
2023-01-30T15:44:07.644Z,5.87
2023-01-30T15:47:27.907Z,5.80
2023-01-30T15:50:29.498Z,5.70
2023-01-30T15:53:37.250Z,6.20
2023-01-30T15:56:40.091Z,5.50
2023-01-30T15:59:41.856Z,5.33
2023-01-30T16:02:44.113Z,5.20
2023-01-30T16:05:55.215Z,5.97
2023-01-30T16:09:03.713Z,5.10
2023-01-30T16:12:05.327Z,6.17
2023-01-30T16:15:29.804Z,5.30
2023-01-30T16:18:55.942Z,5.77
2023-01-30T16:22:01.867Z,5.80
2023-01-30T16:25:04.442Z,5.47
2023-01-30T16:28:05.931Z,5.70
2023-01-30T16:31:09.908Z,6.00
2023-01-30T16:34:29.607Z,5.93
2023-01-30T16:37:31.759Z,5.40
2023-01-30T16:40:45.020Z,5.53
2023-01-30T16:43:46.534Z,5.97
2023-01-30T16:46:49.593Z,5.40
2023-01-30T16:49:53.015Z,5.70
2023-01-30T16:52:55.432Z,5.40
2023-01-30T16:55:59.646Z,6.10
2023-01-30T16:59:01.858Z,5.73
2023-01-30T17:02:06.644Z,6.00
2023-01-30T17:05:20.978Z,5.90
2023-01-30T17:08:31.341Z,6.40
2023-01-30T17:11:38.482Z,6.43
2023-01-30T17:14:39.946Z,6.33
2023-01-30T17:17:41.772Z,6.17
2023-01-30T17:20:47.486Z,5.70
2023-01-30T17:23:52.419Z,6.10
2023-01-30T17:27:00.144Z,5.23
2023-01-30T17:30:01.641Z,5.57
2023-01-30T17:33:03.366Z,5.50
2023-01-30T17:36:11.363Z,6.00
2023-01-30T17:39:16.208Z,5.80
2023-01-30T17:42:20.909Z,5.90
2023-01-30T17:45:22.322Z,5.77
2023-01-30T17:48:23.718Z,6.60
2023-01-30T17:51:25.112Z,6.00
2023-01-30T17:54:26.837Z,6.53
2023-01-30T17:57:28.409Z,5.93
2023-01-30T18:00:29.834Z,5.80
2023-01-30T18:03:31.283Z,6.23
2023-01-30T18:06:34.065Z,6.93
2023-01-30T18:09:35.738Z,5.97
2023-01-30T18:12:37.104Z,6.23
2023-01-30T18:15:38.486Z,6.57
2023-01-30T18:18:39.875Z,6.13
2023-01-30T18:21:44.890Z,6.40
2023-01-30T18:24:46.426Z,6.93
2023-01-30T18:27:48.015Z,6.57
2023-01-30T18:30:49.608Z,7.50
2023-01-30T18:33:52.212Z,7.27
2023-01-30T18:36:53.672Z,7.97
2023-01-30T18:39:55.069Z,7.37
2023-01-30T18:42:56.495Z,7.30
2023-01-30T18:46:03.065Z,7.50
2023-01-30T18:49:04.746Z,7.03
2023-01-30T18:52:06.148Z,7.63
2023-01-30T18:55:07.928Z,7.53
2023-01-30T18:58:09.413Z,8.93
2023-01-30T19:01:17.111Z,7.60
2023-01-30T19:04:18.529Z,7.03
2023-01-30T19:07:20.170Z,7.20
2023-01-30T19:10:22.046Z,7.03
2023-01-30T19:13:36.617Z,6.57
2023-01-30T19:16:38.918Z,7.73
2023-01-30T19:19:40.338Z,6.93
2023-01-30T19:22:42.490Z,6.77
2023-01-30T19:25:43.930Z,6.57
2023-01-30T19:28:46.106Z,7.30
2023-01-30T19:31:47.634Z,7.13
2023-01-30T19:34:50.168Z,7.20
2023-01-30T19:37:54.997Z,7.27
2023-01-30T19:40:56.378Z,7.43
2023-01-30T19:43:59.798Z,6.90
2023-01-30T19:47:01.316Z,8.30
2023-01-30T19:50:02.808Z,7.90
2023-01-30T19:53:04.322Z,9.27
2023-01-30T19:56:07.092Z,8.47
2023-01-30T19:59:09.200Z,7.40
2023-01-30T20:02:11.315Z,7.20
2023-01-30T20:05:12.870Z,7.13
2023-01-30T20:08:25.368Z,7.37
2023-01-30T20:11:32.568Z,7.87
2023-01-30T20:14:34.075Z,9.60
2023-01-30T20:17:36.134Z,7.17
2023-01-30T20:20:37.508Z,6.87
2023-01-30T20:23:41.559Z,7.00
2023-01-30T20:26:47.153Z,6.50
2023-01-30T20:29:49.607Z,6.87
2023-01-30T20:32:54.345Z,7.77
2023-01-30T20:36:01.103Z,7.63
2023-01-30T20:39:04.240Z,7.63
2023-01-30T20:42:06.302Z,7.20
2023-01-30T20:45:08.380Z,7.17
2023-01-30T20:48:09.763Z,7.50
2023-01-30T20:51:13.858Z,7.50
2023-01-30T20:54:16.302Z,7.50
2023-01-30T20:57:17.730Z,7.23
2023-01-30T21:00:19.452Z,7.07
2023-01-30T21:03:24.165Z,7.47
2023-01-30T21:06:42.573Z,7.50
2023-01-30T21:09:46.297Z,7.60
2023-01-30T21:12:47.661Z,6.93
2023-01-30T21:15:49.228Z,6.97
2023-01-30T21:18:53.512Z,7.33
2023-01-30T21:22:07.367Z,7.30
2023-01-30T21:25:08.791Z,7.47
2023-01-30T21:28:10.178Z,8.37
2023-01-30T21:31:20.705Z,8.00
2023-01-30T21:34:22.471Z,8.53
2023-01-30T21:37:42.586Z,9.20
2023-01-30T21:41:09.651Z,8.73
2023-01-30T21:44:12.575Z,8.03
2023-01-30T21:47:13.958Z,8.07
2023-01-30T21:50:15.740Z,8.50
2023-01-30T21:53:17.123Z,7.43
2023-01-30T21:56:18.584Z,7.57
2023-01-30T21:59:20.016Z,7.73
2023-01-30T22:02:21.398Z,7.27
2023-01-30T22:05:22.900Z,7.43
2023-01-30T22:08:24.283Z,7.03
2023-01-30T22:11:27.961Z,7.73
2023-01-30T22:14:29.343Z,7.57
2023-01-30T22:17:30.739Z,7.27
2023-01-30T22:20:32.174Z,7.63
2023-01-30T22:23:39.661Z,7.17
2023-01-30T22:26:41.096Z,7.93
2023-01-30T22:29:42.604Z,8.30
2023-01-30T22:32:43.974Z,8.00
2023-01-30T22:35:50.073Z,8.23
2023-01-30T22:38:51.600Z,8.60
2023-01-30T22:41:52.972Z,8.30
2023-01-30T22:44:54.656Z,8.20
2023-01-30T22:47:56.180Z,8.27
2023-01-30T22:51:22.360Z,8.47
2023-01-30T22:54:25.053Z,8.33
2023-01-30T22:57:26.491Z,8.53
2023-01-30T23:00:27.947Z,8.23
2023-01-30T23:03:29.404Z,8.10
2023-01-30T23:06:31.631Z,8.77
2023-01-30T23:09:33.091Z,9.20
2023-01-30T23:12:53.227Z,8.50
2023-01-30T23:15:59.441Z,8.90
2023-01-30T23:19:03.446Z,8.40
2023-01-30T23:22:04.930Z,8.90
2023-01-30T23:25:06.731Z,8.63
2023-01-30T23:28:08.812Z,7.67
2023-01-30T23:31:16.252Z,8.50
2023-01-30T23:34:19.142Z,8.80
2023-01-30T23:37:40.551Z,7.67
2023-01-30T23:40:43.270Z,8.60
2023-01-30T23:43:45.532Z,8.33
2023-01-30T23:46:46.993Z,8.87
2023-01-30T23:49:48.407Z,8.90
2023-01-30T23:52:49.797Z,8.77
2023-01-30T23:55:52.668Z,8.33
2023-01-30T23:58:54.170Z,8.50
